EGPD - Aberdeen / Dyce
Distance from station: E 5mi, 14km
Updated: 08/20/2018 5:50pm
Overcast
Overcast
 Wind from S
Wind: S 2 mph , 4 km/h
Temperature: 55°F , 13°C
Dew Point: 52°F , 11°C
Humidity: 88%
Barometer: 30.12 inHg , 1020 hPa
Clouds: Overcast
Visibility: 6 miles , 10 km
Cloud details: Overcast 900 ft
2018/08/21 00:50 EGPD 210050Z AUTO 18002KT 9999 OVC009 13/11 Q1020 BECMG SCT009